Time;durP1;ratioP1;P1;durP2;ratioP2;P2;SDS_P1;SDS_P2;PMS_P1;PMS_P2;Temp;Humidity;BMP_temperature;BMP_pressure;BME280_temperature;BME280_humidity;BME280_pressure;Samples;Min_cycle;Max_cycle;Signal;HPM_P1;HPM_P2
2021/12/12 00:02:07;;;;;;;;;;;3.10;22.10;;;;;;5061007;28;20014;-72
2021/12/12 00:04:39;;;;;;;;;;;3.10;21.90;;;;;;5094799;28;19920;-72
2021/12/12 00:07:08;;;;;;;;;;;3.10;21.40;;;;;;5095904;28;19976;-71
2021/12/12 00:09:38;;;;;;;;;;;3.10;21.30;;;;;;5084821;27;19946;-71
2021/12/12 00:12:08;;;;;;;;;;;3.00;21.40;;;;;;5091242;28;20498;-71
2021/12/12 00:14:36;;;;;;;;;;;3.00;20.60;;;;;;5106033;28;19924;-71
2021/12/12 00:17:06;;;;;;;;;;;3.00;20.70;;;;;;5101728;28;19980;-73
2021/12/12 00:19:39;;;;;;;;;;;2.90;19.10;;;;;;5100915;27;19926;-72
2021/12/12 00:22:09;;;;;;;;;;;2.90;18.70;;;;;;5104575;27;20014;-73
2021/12/12 00:24:37;;;;;;;;;;;2.90;18.90;;;;;;5101681;27;19967;-72
2021/12/12 00:27:05;;;;;;;;;;;2.90;18.30;;;;;;5104893;28;19942;-72
2021/12/12 00:29:34;;;;;;;;;;;2.90;18.30;;;;;;5104098;28;19920;-72
2021/12/12 00:32:06;;;;;;;;;;;2.90;18.10;;;;;;5101336;28;20288;-72
2021/12/12 00:34:36;;;;;;;;;;;2.80;18.20;;;;;;5102809;28;20337;-72
2021/12/12 00:37:07;;;;;;;;;;;2.80;18.20;;;;;;5103788;28;19923;-72
2021/12/12 00:39:36;;;;;;;;;;;2.80;18.20;;;;;;5105205;28;20066;-72
2021/12/12 00:42:06;;;;;;;;;;;2.80;17.00;;;;;;5099954;27;20619;-72
2021/12/12 00:44:37;;;;;;;;;;;2.70;17.20;;;;;;5101128;28;19978;-72
2021/12/12 00:47:07;;;;;;;;;;;2.70;16.60;;;;;;5106730;27;20026;-72
2021/12/12 00:49:36;;;;;;;;;;;2.70;16.20;;;;;;5097877;27;19927;-72
2021/12/12 00:52:04;;;;;;;;;;;2.70;15.60;;;;;;5106761;27;19919;-71
2021/12/12 00:54:34;;;;;;;;;;;2.70;15.80;;;;;;5102504;28;19920;-71
2021/12/12 00:57:05;;;;;;;;;;;2.80;15.50;;;;;;5103650;28;19966;-71
2021/12/12 00:59:33;;;;;;;;;;;2.70;16.00;;;;;;5082364;28;19927;-71
2021/12/12 01:02:03;;;;;;;;;;;2.80;15.90;;;;;;5081878;28;20015;-71
2021/12/12 01:04:33;;;;;;;;;;;2.80;15.80;;;;;;5103372;28;20394;-71
2021/12/12 01:07:05;;;;;;;;;;;2.90;14.80;;;;;;5096322;28;20015;-71
2021/12/12 01:09:36;;;;;;;;;;;2.90;14.80;;;;;;5104523;28;20546;-71
2021/12/12 01:12:05;;;;;;;;;;;2.90;14.80;;;;;;5100115;28;20036;-71
2021/12/12 01:14:34;;;;;;;;;;;2.90;13.60;;;;;;5103018;28;20094;-71
2021/12/12 01:17:05;;;;;;;;;;;3.00;13.80;;;;;;5081901;28;19938;-73
2021/12/12 01:19:37;;;;;;;;;;;3.00;12.80;;;;;;5096941;28;20426;-73
2021/12/12 01:22:08;;;;;;;;;;;3.00;12.80;;;;;;5103803;27;19981;-72
2021/12/12 01:24:42;;;;;;;;;;;3.00;11.50;;;;;;5104738;28;20285;-73
2021/12/12 01:27:14;;;;;;;;;;;3.10;11.10;;;;;;5100122;27;19924;-72
2021/12/12 01:29:49;;;;;;;;;;;3.10;10.40;;;;;;5094221;28;19985;-72
2021/12/12 01:32:25;;;;;;;;;;;3.10;9.90;;;;;;5097052;28;19920;-70
2021/12/12 01:34:56;;;;;;;;;;;3.10;10.00;;;;;;5096437;28;19928;-70
2021/12/12 01:37:37;;;;;;;;;;;3.10;9.70;;;;;;5088993;28;19928;-70
2021/12/12 01:40:10;;;;;;;;;;;3.20;8.90;;;;;;5098672;28;19977;-71
2021/12/12 01:42:40;;;;;;;;;;;3.10;9.00;;;;;;5098977;28;19926;-71
2021/12/12 01:45:09;;;;;;;;;;;3.10;8.30;;;;;;5103821;28;19924;-71
2021/12/12 01:47:39;;;;;;;;;;;3.20;7.80;;;;;;5095056;28;20701;-71
2021/12/12 01:50:12;;;;;;;;;;;3.20;7.80;;;;;;5100499;28;19920;-71
2021/12/12 01:52:41;;;;;;;;;;;3.20;7.80;;;;;;5100979;27;19920;-71
2021/12/12 01:55:18;;;;;;;;;;;3.20;7.80;;;;;;5099991;28;20388;-71
2021/12/12 01:57:46;;;;;;;;;;;3.20;5.60;;;;;;5101053;28;19934;-71
2021/12/12 02:00:15;;;;;;;;;;;3.20;4.90;;;;;;5103457;28;20018;-71
2021/12/12 02:02:43;;;;;;;;;;;3.30;4.10;;;;;;5098804;28;19924;-71
2021/12/12 02:05:12;;;;;;;;;;;3.20;4.50;;;;;;5104206;28;20472;-71
2021/12/12 02:07:45;;;;;;;;;;;3.20;5.30;;;;;;5099290;28;20002;-71
2021/12/12 02:10:17;;;;;;;;;;;3.30;5.30;;;;;;5101741;28;19923;-72
2021/12/12 02:12:45;;;;;;;;;;;3.30;4.20;;;;;;5095896;28;19959;-71
2021/12/12 02:15:14;;;;;;;;;;;3.30;4.30;;;;;;5103897;28;20403;-71
2021/12/12 02:17:45;;;;;;;;;;;3.20;5.10;;;;;;5102145;28;19959;-72
2021/12/12 02:20:20;;;;;;;;;;;3.20;5.40;;;;;;5084720;28;19951;-71
2021/12/12 02:23:00;;;;;;;;;;;3.20;5.20;;;;;;5098628;28;19930;-71
2021/12/12 02:36:36;;;;;;;;;;;3.20;3.10;;;;;;5096388;27;19927;-71
2021/12/12 02:39:15;;;;;;;;;;;3.20;2.90;;;;;;5099452;27;19920;-71
2021/12/12 02:41:45;;;;;;;;;;;3.20;3.10;;;;;;5103833;27;20015;-71
2021/12/12 02:44:13;;;;;;;;;;;3.20;2.80;;;;;;5104052;27;20346;-71
2021/12/12 02:46:43;;;;;;;;;;;3.20;3.30;;;;;;5106368;28;19923;-71
2021/12/12 02:49:25;;;;;;;;;;;3.20;3.70;;;;;;5087247;27;19924;-71
2021/12/12 02:51:53;;;;;;;;;;;3.20;4.10;;;;;;5106438;27;19942;-72
2021/12/12 02:54:23;;;;;;;;;;;3.20;3.70;;;;;;5092613;27;19924;-71
2021/12/12 02:56:54;;;;;;;;;;;3.20;4.40;;;;;;5072072;28;19981;-72
2021/12/12 02:59:23;;;;;;;;;;;3.20;4.20;;;;;;5094394;27;19931;-72
2021/12/12 03:01:56;;;;;;;;;;;3.20;4.20;;;;;;5106075;28;19947;-72
2021/12/12 03:04:25;;;;;;;;;;;3.10;4.90;;;;;;5079649;28;20371;-71
2021/12/12 03:06:53;;;;;;;;;;;3.10;4.50;;;;;;5106750;27;19958;-71
2021/12/12 03:09:25;;;;;;;;;;;3.10;4.90;;;;;;5110263;27;20303;-71
2021/12/12 03:11:54;;;;;;;;;;;3.00;4.80;;;;;;5103978;28;19972;-71
2021/12/12 03:14:22;;;;;;;;;;;3.00;4.70;;;;;;5086385;28;20026;-72
2021/12/12 03:16:50;;;;;;;;;;;3.00;5.00;;;;;;5095864;28;20379;-72
2021/12/12 03:19:20;;;;;;;;;;;2.90;5.40;;;;;;5087244;28;19971;-72
2021/12/12 03:21:48;;;;;;;;;;;2.90;5.60;;;;;;5098950;28;19924;-71
2021/12/12 03:24:19;;;;;;;;;;;2.90;5.90;;;;;;5102368;28;19929;-72
2021/12/12 03:26:49;;;;;;;;;;;2.90;6.00;;;;;;5105893;27;19924;-72
2021/12/12 03:29:18;;;;;;;;;;;2.90;6.40;;;;;;5101253;28;20336;-72
2021/12/12 03:31:48;;;;;;;;;;;2.90;6.40;;;;;;5103681;28;19942;-72
2021/12/12 03:34:18;;;;;;;;;;;2.80;7.50;;;;;;5099750;27;19959;-73
2021/12/12 03:36:46;;;;;;;;;;;2.80;7.70;;;;;;5104000;28;19934;-72
2021/12/12 03:39:15;;;;;;;;;;;2.80;8.40;;;;;;5105210;27;19930;-72
2021/12/12 03:41:46;;;;;;;;;;;2.80;8.90;;;;;;5103943;27;19924;-72
2021/12/12 03:44:17;;;;;;;;;;;2.80;9.20;;;;;;5104206;27;19923;-72
2021/12/12 03:46:47;;;;;;;;;;;2.60;9.70;;;;;;5105526;28;20006;-72
2021/12/12 03:49:16;;;;;;;;;;;2.60;10.30;;;;;;5100764;27;19938;-72
2021/12/12 03:51:44;;;;;;;;;;;2.50;11.00;;;;;;5099967;28;19919;-72
2021/12/12 03:54:12;;;;;;;;;;;2.40;12.40;;;;;;5100979;27;20017;-72
2021/12/12 03:56:42;;;;;;;;;;;2.30;13.60;;;;;;5101695;27;19927;-72
2021/12/12 03:59:10;;;;;;;;;;;2.20;14.30;;;;;;5100249;28;20034;-73
2021/12/12 04:01:41;;;;;;;;;;;2.20;14.80;;;;;;5100679;28;19933;-73
2021/12/12 04:04:11;;;;;;;;;;;2.10;15.90;;;;;;5089968;28;20001;-73
2021/12/12 04:06:39;;;;;;;;;;;2.10;16.80;;;;;;5103449;27;20014;-73
2021/12/12 04:09:08;;;;;;;;;;;2.10;17.20;;;;;;5095447;27;20350;-73
2021/12/12 04:11:38;;;;;;;;;;;2.00;17.60;;;;;;5099836;27;19927;-73
2021/12/12 04:14:07;;;;;;;;;;;2.00;17.70;;;;;;5095991;27;20011;-73
2021/12/12 04:16:38;;;;;;;;;;;2.10;18.30;;;;;;5101613;28;19920;-73
2021/12/12 04:19:08;;;;;;;;;;;2.10;18.10;;;;;;5082907;28;20003;-73
2021/12/12 04:21:37;;;;;;;;;;;2.10;18.10;;;;;;5104984;28;19926;-73
2021/12/12 04:24:05;;;;;;;;;;;2.10;17.90;;;;;;5101056;28;19919;-73
2021/12/12 04:26:34;;;;;;;;;;;2.10;17.80;;;;;;5100855;28;19926;-73
2021/12/12 04:29:05;;;;;;;;;;;2.10;17.80;;;;;;5107006;27;20385;-73
2021/12/12 04:31:34;;;;;;;;;;;2.10;17.70;;;;;;5099821;27;19919;-73
2021/12/12 04:34:03;;;;;;;;;;;2.00;17.70;;;;;;5100995;28;19972;-73
2021/12/12 04:36:33;;;;;;;;;;;2.10;17.20;;;;;;5100953;27;20442;-73
2021/12/12 04:39:03;;;;;;;;;;;2.10;16.50;;;;;;5096825;28;19951;-73
2021/12/12 04:41:31;;;;;;;;;;;2.10;17.20;;;;;;5101566;27;19957;-73
2021/12/12 04:43:59;;;;;;;;;;;2.10;16.90;;;;;;5103051;27;19924;-74
2021/12/12 04:46:37;;;;;;;;;;;2.20;16.10;;;;;;5080686;28;20015;-72
2021/12/12 04:51:57;;;;;;;;;;;2.30;14.70;;;;;;5100384;28;19920;-73
2021/12/12 04:54:28;;;;;;;;;;;2.40;14.40;;;;;;5100417;28;19928;-73
2021/12/12 04:56:59;;;;;;;;;;;2.40;14.40;;;;;;5103370;28;19966;-73
2021/12/12 04:59:30;;;;;;;;;;;2.40;14.40;;;;;;5095672;28;19938;-73
2021/12/12 05:02:02;;;;;;;;;;;2.40;14.20;;;;;;5099732;27;19920;-73
2021/12/12 05:04:32;;;;;;;;;;;2.40;14.50;;;;;;5083446;28;19919;-73
2021/12/12 05:07:05;;;;;;;;;;;2.50;14.50;;;;;;5084273;28;19955;-73
2021/12/12 05:09:34;;;;;;;;;;;2.50;13.50;;;;;;5099216;27;20286;-73
2021/12/12 05:12:04;;;;;;;;;;;2.40;13.50;;;;;;5100465;28;20002;-73
2021/12/12 05:14:34;;;;;;;;;;;2.50;13.80;;;;;;5101828;27;20183;-73
2021/12/12 05:17:04;;;;;;;;;;;2.40;13.50;;;;;;5103463;28;20011;-73
2021/12/12 05:19:32;;;;;;;;;;;2.40;13.90;;;;;;5102069;28;19924;-72
2021/12/12 05:22:05;;;;;;;;;;;2.30;14.40;;;;;;5096636;28;20562;-73
2021/12/12 05:24:38;;;;;;;;;;;2.30;14.40;;;;;;5099956;28;19923;-73
2021/12/12 05:27:07;;;;;;;;;;;2.20;15.70;;;;;;5104133;28;20383;-73
2021/12/12 05:29:38;;;;;;;;;;;2.20;15.60;;;;;;5101597;28;19927;-73
2021/12/12 05:32:08;;;;;;;;;;;2.20;15.70;;;;;;5080242;27;19923;-73
2021/12/12 05:34:37;;;;;;;;;;;2.20;16.20;;;;;;5098919;28;19919;-73
2021/12/12 05:37:07;;;;;;;;;;;2.10;17.00;;;;;;5104887;27;20367;-73
2021/12/12 05:39:35;;;;;;;;;;;2.00;17.70;;;;;;5101996;27;19930;-73
2021/12/12 05:42:03;;;;;;;;;;;2.10;18.40;;;;;;5101927;27;19930;-73
2021/12/12 05:44:31;;;;;;;;;;;2.00;18.30;;;;;;5101656;28;20003;-73
2021/12/12 05:47:01;;;;;;;;;;;1.90;18.60;;;;;;5101687;28;20013;-72
2021/12/12 05:49:29;;;;;;;;;;;1.90;19.40;;;;;;5096636;28;19946;-73
2021/12/12 05:51:57;;;;;;;;;;;1.80;19.90;;;;;;5099994;28;19927;-73
2021/12/12 05:54:27;;;;;;;;;;;1.70;20.50;;;;;;5081434;28;19926;-73
2021/12/12 05:56:55;;;;;;;;;;;1.70;20.90;;;;;;5080335;28;20014;-73
2021/12/12 05:59:23;;;;;;;;;;;1.70;20.90;;;;;;5084118;28;19919;-73
2021/12/12 06:01:51;;;;;;;;;;;1.60;20.90;;;;;;5108537;27;19920;-72
2021/12/12 06:04:20;;;;;;;;;;;1.70;21.00;;;;;;5108561;27;19926;-73
2021/12/12 06:06:48;;;;;;;;;;;1.60;20.90;;;;;;5106059;27;20019;-73
2021/12/12 06:09:17;;;;;;;;;;;1.60;20.90;;;;;;5107526;28;19927;-73
2021/12/12 06:11:48;;;;;;;;;;;1.60;20.90;;;;;;5086019;28;19942;-73
2021/12/12 06:14:17;;;;;;;;;;;1.60;20.90;;;;;;5109021;27;19969;-73
2021/12/12 06:16:45;;;;;;;;;;;1.50;20.80;;;;;;5112041;28;19928;-72
2021/12/12 06:19:14;;;;;;;;;;;1.40;21.30;;;;;;5106454;28;20018;-73
2021/12/12 06:21:43;;;;;;;;;;;1.50;21.30;;;;;;5106012;28;19924;-73
2021/12/12 06:24:11;;;;;;;;;;;1.50;20.90;;;;;;5107156;28;19991;-73
2021/12/12 06:26:39;;;;;;;;;;;1.40;20.70;;;;;;5108219;28;19924;-72
2021/12/12 06:29:08;;;;;;;;;;;1.40;20.80;;;;;;5108567;27;20026;-73
2021/12/12 06:31:37;;;;;;;;;;;1.40;20.60;;;;;;5106963;28;19935;-73
2021/12/12 06:34:05;;;;;;;;;;;1.40;20.80;;;;;;5091277;28;20002;-73
2021/12/12 06:36:33;;;;;;;;;;;1.30;21.10;;;;;;5111107;28;19920;-73
2021/12/12 06:39:01;;;;;;;;;;;1.30;21.80;;;;;;5105674;28;20490;-73
2021/12/12 06:41:29;;;;;;;;;;;1.30;22.00;;;;;;5105675;28;19928;-73
2021/12/12 06:43:57;;;;;;;;;;;1.30;22.50;;;;;;5108063;28;19919;-72
2021/12/12 06:46:27;;;;;;;;;;;1.20;22.40;;;;;;5106293;27;19939;-72
2021/12/12 06:48:55;;;;;;;;;;;1.30;22.80;;;;;;5105984;27;20033;-72
2021/12/12 06:51:23;;;;;;;;;;;1.30;22.40;;;;;;5107359;28;20612;-71
2021/12/12 06:53:51;;;;;;;;;;;1.30;22.90;;;;;;5104799;27;19920;-74
2021/12/12 06:56:20;;;;;;;;;;;1.30;22.40;;;;;;5087055;27;19970;-72
2021/12/12 06:58:48;;;;;;;;;;;1.40;22.00;;;;;;5108144;28;19953;-72
2021/12/12 07:01:18;;;;;;;;;;;1.40;21.70;;;;;;5105032;27;20014;-72
2021/12/12 07:03:48;;;;;;;;;;;1.40;21.40;;;;;;5112067;27;20006;-72
2021/12/12 07:06:18;;;;;;;;;;;1.30;22.00;;;;;;5084900;27;19963;-73
2021/12/12 07:08:46;;;;;;;;;;;1.30;22.70;;;;;;5103760;28;19920;-73
2021/12/12 07:11:15;;;;;;;;;;;1.40;22.40;;;;;;5103167;27;19927;-73
2021/12/12 07:13:43;;;;;;;;;;;1.30;22.80;;;;;;5101432;27;20018;-72
2021/12/12 07:16:11;;;;;;;;;;;1.40;23.50;;;;;;5104980;27;19962;-72
2021/12/12 07:18:39;;;;;;;;;;;1.40;22.90;;;;;;5106477;27;20030;-73
2021/12/12 07:21:10;;;;;;;;;;;1.40;23.00;;;;;;5102623;27;19919;-72
2021/12/12 07:23:41;;;;;;;;;;;1.40;23.20;;;;;;5104310;27;19927;-72
2021/12/12 07:26:10;;;;;;;;;;;1.50;22.80;;;;;;5089522;28;20014;-73
2021/12/12 07:28:38;;;;;;;;;;;1.60;21.60;;;;;;5103179;28;19923;-73
2021/12/12 07:31:07;;;;;;;;;;;1.60;22.00;;;;;;5104548;27;20014;-71
2021/12/12 07:33:35;;;;;;;;;;;1.60;21.90;;;;;;5082991;28;19927;-72
2021/12/12 07:36:05;;;;;;;;;;;1.70;22.30;;;;;;5104354;28;19927;-71
2021/12/12 07:38:34;;;;;;;;;;;1.70;22.00;;;;;;5100088;28;20006;-72
2021/12/12 07:41:04;;;;;;;;;;;1.70;22.10;;;;;;5104925;27;19950;-72
2021/12/12 07:43:32;;;;;;;;;;;1.70;22.30;;;;;;5101121;28;19920;-72
2021/12/12 07:46:01;;;;;;;;;;;1.80;21.80;;;;;;5105248;28;19920;-72
2021/12/12 07:48:30;;;;;;;;;;;1.90;21.10;;;;;;5101310;28;19930;-72
2021/12/12 07:50:59;;;;;;;;;;;1.90;21.00;;;;;;5102577;28;19920;-72
2021/12/12 07:53:27;;;;;;;;;;;1.90;20.40;;;;;;5100099;28;20105;-72
2021/12/12 07:55:57;;;;;;;;;;;2.00;20.00;;;;;;5103986;27;20011;-72
2021/12/12 07:58:26;;;;;;;;;;;2.00;19.60;;;;;;5101859;28;20515;-72
2021/12/12 08:00:55;;;;;;;;;;;2.00;19.90;;;;;;5098955;28;19924;-72
2021/12/12 08:03:24;;;;;;;;;;;2.10;19.40;;;;;;5102187;27;19930;-72
2021/12/12 08:05:52;;;;;;;;;;;2.20;18.60;;;;;;5100971;28;19962;-72
2021/12/12 08:08:24;;;;;;;;;;;2.20;17.80;;;;;;5098667;28;20335;-72
2021/12/12 08:10:52;;;;;;;;;;;2.30;17.90;;;;;;5104002;28;19928;-72
2021/12/12 08:13:21;;;;;;;;;;;2.40;17.60;;;;;;5102318;27;19924;-73
2021/12/12 08:15:49;;;;;;;;;;;2.50;17.20;;;;;;5104988;27;20002;-71
2021/12/12 08:18:18;;;;;;;;;;;2.60;16.80;;;;;;5104708;28;20018;-72
2021/12/12 08:20:47;;;;;;;;;;;2.70;16.00;;;;;;5100351;28;19953;-71
2021/12/12 08:23:15;;;;;;;;;;;2.80;14.70;;;;;;5103835;27;19928;-73
2021/12/12 08:25:46;;;;;;;;;;;2.90;13.70;;;;;;5102824;27;19923;-73
2021/12/12 08:28:19;;;;;;;;;;;2.90;12.90;;;;;;5101193;28;19923;-72
2021/12/12 08:30:49;;;;;;;;;;;2.90;12.50;;;;;;5090744;28;19965;-72
2021/12/12 08:33:17;;;;;;;;;;;3.00;12.70;;;;;;5097562;28;19928;-73
2021/12/12 08:35:45;;;;;;;;;;;3.00;11.90;;;;;;5103239;27;19934;-73
2021/12/12 08:38:13;;;;;;;;;;;3.00;11.60;;;;;;5101308;28;19919;-73
2021/12/12 08:40:45;;;;;;;;;;;3.10;11.40;;;;;;5104241;27;19926;-74
2021/12/12 08:43:14;;;;;;;;;;;3.10;11.30;;;;;;5095243;28;20401;-73
2021/12/12 08:45:43;;;;;;;;;;;3.10;11.40;;;;;;5084215;28;20275;-73
2021/12/12 08:48:13;;;;;;;;;;;3.10;11.10;;;;;;5101094;27;19923;-72
2021/12/12 08:50:42;;;;;;;;;;;3.20;10.10;;;;;;5102382;28;19996;-72
2021/12/12 08:53:09;;;;;;;;;;;3.20;9.80;;;;;;5103004;27;19923;-72
2021/12/12 08:55:43;;;;;;;;;;;3.20;10.20;;;;;;5082198;28;19927;-73
2021/12/12 08:58:17;;;;;;;;;;;3.30;9.70;;;;;;5084494;27;20046;-72
2021/12/12 09:00:47;;;;;;;;;;;3.30;8.80;;;;;;5099971;28;20364;-72
2021/12/12 09:03:18;;;;;;;;;;;3.40;7.90;;;;;;5100852;27;19927;-72
2021/12/12 09:05:46;;;;;;;;;;;3.40;8.00;;;;;;5096871;27;19926;-71
2021/12/12 09:08:22;;;;;;;;;;;3.50;8.00;;;;;;5100975;27;19920;-72
2021/12/12 09:10:57;;;;;;;;;;;3.60;8.10;;;;;;5106462;27;19920;-72
2021/12/12 09:13:27;;;;;;;;;;;3.70;7.20;;;;;;5075093;28;20134;-72
2021/12/12 09:15:59;;;;;;;;;;;3.60;6.70;;;;;;5079534;28;19927;-73
2021/12/12 09:18:31;;;;;;;;;;;3.60;6.60;;;;;;5096928;27;19955;-72
2021/12/12 09:21:05;;;;;;;;;;;3.60;5.80;;;;;;5085293;28;20382;-73
2021/12/12 09:23:34;;;;;;;;;;;3.70;5.80;;;;;;5094333;27;19920;-73
2021/12/12 09:26:05;;;;;;;;;;;3.70;4.70;;;;;;5097410;28;19934;-72
2021/12/12 09:28:36;;;;;;;;;;;3.80;4.60;;;;;;5065872;28;20006;-72
2021/12/12 09:31:05;;;;;;;;;;;3.90;4.40;;;;;;5099892;28;19928;-73
2021/12/12 09:33:38;;;;;;;;;;;4.00;4.10;;;;;;5070237;28;19925;-73
2021/12/12 09:36:09;;;;;;;;;;;4.00;3.50;;;;;;5095348;28;19934;-73
2021/12/12 09:38:39;;;;;;;;;;;4.10;3.20;;;;;;5085613;28;19919;-73
2021/12/12 09:41:18;;;;;;;;;;;4.20;2.70;;;;;;5101523;28;20329;-73
2021/12/12 09:44:05;;;;;;;;;;;4.20;2.10;;;;;;5081932;28;20338;-72
2021/12/12 09:46:57;;;;;;;;;;;4.30;2.20;;;;;;5094696;28;20426;-73
2021/12/12 09:52:56;;;;;;;;;;;4.60;1.00;;;;;;5087250;27;19941;-73
2021/12/12 09:55:25;;;;;;;;;;;4.50;1.00;;;;;;5071687;28;20019;-73
2021/12/12 09:57:54;;;;;;;;;;;4.50;1.00;;;;;;5080307;28;19928;-73
2021/12/12 10:00:27;;;;;;;;;;;4.50;1.00;;;;;;5080653;28;19920;-73
2021/12/12 10:03:07;;;;;;;;;;;4.50;1.00;;;;;;5099200;28;20373;-72
2021/12/12 10:05:44;;;;;;;;;;;4.60;1.00;;;;;;5068958;28;20282;-72
2021/12/12 10:08:16;;;;;;;;;;;4.60;1.00;;;;;;5102057;28;19959;-73
2021/12/12 10:10:48;;;;;;;;;;;4.60;1.00;;;;;;5101292;28;19931;-73
2021/12/12 10:13:20;;;;;;;;;;;4.80;1.00;;;;;;5101317;28;20033;-73
2021/12/12 10:15:51;;;;;;;;;;;4.70;1.00;;;;;;5099925;28;19920;-73
2021/12/12 10:18:20;;;;;;;;;;;4.70;1.00;;;;;;5098919;28;19927;-72
2021/12/12 10:20:53;;;;;;;;;;;4.70;1.00;;;;;;5092412;28;19933;-73
2021/12/12 10:23:27;;;;;;;;;;;4.70;1.00;;;;;;5095167;28;20398;-73
2021/12/12 10:25:58;;;;;;;;;;;4.70;1.00;;;;;;5095859;28;19953;-73
2021/12/12 10:28:31;;;;;;;;;;;4.90;1.00;;;;;;5059652;28;19920;-72
2021/12/12 10:31:02;;;;;;;;;;;4.80;1.00;;;;;;5084454;28;19960;-71
2021/12/12 10:33:36;;;;;;;;;;;4.90;1.00;;;;;;5099515;28;19930;-72
2021/12/12 10:36:07;;;;;;;;;;;5.00;1.00;;;;;;5076744;28;21101;-72
2021/12/12 10:38:38;;;;;;;;;;;5.00;1.00;;;;;;5099116;28;19920;-72
2021/12/12 10:41:08;;;;;;;;;;;5.10;1.00;;;;;;5101894;28;19930;-72
2021/12/12 10:43:37;;;;;;;;;;;5.10;1.00;;;;;;5094678;28;19923;-73
2021/12/12 10:46:07;;;;;;;;;;;5.20;1.00;;;;;;5096916;28;20006;-73
2021/12/12 10:48:39;;;;;;;;;;;5.30;1.00;;;;;;5101251;27;20020;-74
2021/12/12 10:51:11;;;;;;;;;;;5.40;1.00;;;;;;5086407;28;19923;-73
2021/12/12 10:53:44;;;;;;;;;;;5.30;1.00;;;;;;5092960;28;20431;-72
2021/12/12 10:56:17;;;;;;;;;;;5.20;1.00;;;;;;5101729;28;19932;-75
2021/12/12 10:58:47;;;;;;;;;;;5.00;1.00;;;;;;5095773;28;19945;-73
2021/12/12 11:01:17;;;;;;;;;;;5.10;1.00;;;;;;5103345;28;19920;-72
2021/12/12 11:03:49;;;;;;;;;;;5.30;1.00;;;;;;5102746;28;20390;-73
2021/12/12 11:06:22;;;;;;;;;;;5.40;1.00;;;;;;5084367;28;20018;-74
2021/12/12 11:08:53;;;;;;;;;;;5.50;1.00;;;;;;5093099;28;20019;-74
2021/12/12 11:11:22;;;;;;;;;;;5.60;1.00;;;;;;5090790;27;19924;-72
2021/12/12 11:13:51;;;;;;;;;;;5.40;1.00;;;;;;5099999;28;19920;-73
2021/12/12 11:16:20;;;;;;;;;;;5.50;1.00;;;;;;5102808;28;20057;-73
2021/12/12 11:18:53;;;;;;;;;;;5.50;1.00;;;;;;5102179;28;19927;-73
2021/12/12 11:21:25;;;;;;;;;;;5.60;1.00;;;;;;5095981;28;19924;-73
2021/12/12 11:23:56;;;;;;;;;;;5.70;1.00;;;;;;5095799;28;20046;-73
2021/12/12 11:26:27;;;;;;;;;;;5.60;1.00;;;;;;5076900;28;19972;-72
2021/12/12 11:28:56;;;;;;;;;;;5.70;1.00;;;;;;5097917;28;19919;-72
2021/12/12 11:31:26;;;;;;;;;;;5.50;1.00;;;;;;5107183;27;19955;-73
2021/12/12 11:33:55;;;;;;;;;;;5.70;1.00;;;;;;5102793;28;21719;-72
2021/12/12 11:36:26;;;;;;;;;;;5.80;1.00;;;;;;5104822;27;20618;-73
2021/12/12 11:39:00;;;;;;;;;;;5.80;1.00;;;;;;5102478;27;20036;-72
2021/12/12 11:41:30;;;;;;;;;;;5.90;1.00;;;;;;5084206;28;19920;-73
2021/12/12 11:44:02;;;;;;;;;;;5.80;1.00;;;;;;5068192;28;20278;-72
2021/12/12 11:46:52;;;;;;;;;;;5.80;1.00;;;;;;5100557;28;20010;-72
2021/12/12 11:49:22;;;;;;;;;;;6.00;1.00;;;;;;5101141;27;19920;-72
2021/12/12 11:51:55;;;;;;;;;;;6.00;1.00;;;;;;5101531;27;19984;-72
2021/12/12 11:54:41;;;;;;;;;;;6.10;1.00;;;;;;5085009;27;19927;-72
2021/12/12 11:57:12;;;;;;;;;;;6.10;1.00;;;;;;5103859;28;19923;-73
2021/12/12 11:59:44;;;;;;;;;;;6.30;1.00;;;;;;5101041;28;19920;-73
2021/12/12 12:02:26;;;;;;;;;;;6.30;1.00;;;;;;5100173;28;19977;-73
2021/12/12 12:05:00;;;;;;;;;;;6.20;1.00;;;;;;5102242;27;19959;-73
2021/12/12 12:07:38;;;;;;;;;;;6.10;1.00;;;;;;5086277;28;20424;-72
2021/12/12 12:10:09;;;;;;;;;;;6.30;1.00;;;;;;5098896;28;19928;-73
2021/12/12 12:12:43;;;;;;;;;;;6.30;1.00;;;;;;5096579;28;19927;-72
2021/12/12 12:15:16;;;;;;;;;;;6.30;1.00;;;;;;5099385;27;19928;-73
2021/12/12 12:17:50;;;;;;;;;;;6.30;1.00;;;;;;5079699;28;21064;-72
2021/12/12 12:20:23;;;;;;;;;;;6.30;1.00;;;;;;5098795;28;19920;-72
2021/12/12 12:23:11;;;;;;;;;;;6.40;1.00;;;;;;5099062;28;19924;-72
2021/12/12 12:28:29;;;;;;;;;;;6.50;1.00;;;;;;5094615;28;19939;-72
2021/12/12 12:31:20;;;;;;;;;;;6.50;1.00;;;;;;5095698;28;19923;-71
2021/12/12 12:34:09;;;;;;;;;;;6.60;1.00;;;;;;5083550;28;20010;-72
2021/12/12 12:36:55;;;;;;;;;;;6.70;1.00;;;;;;5101737;28;19974;-72
2021/12/12 12:39:41;;;;;;;;;;;6.70;1.00;;;;;;5078380;28;19928;-72
2021/12/12 12:42:38;;;;;;;;;;;6.60;1.00;;;;;;5079809;28;19948;-72
2021/12/12 12:45:25;;;;;;;;;;;6.50;1.00;;;;;;5086219;28;19928;-72
2021/12/12 12:48:11;;;;;;;;;;;6.60;1.00;;;;;;5098409;28;20375;-74
2021/12/12 12:50:43;;;;;;;;;;;6.40;1.00;;;;;;5101645;28;19969;-71
2021/12/12 12:53:31;;;;;;;;;;;6.70;1.00;;;;;;5080305;28;20382;-73
2021/12/12 12:56:25;;;;;;;;;;;6.70;1.00;;;;;;5102656;28;19967;-73
2021/12/12 12:59:10;;;;;;;;;;;6.90;1.00;;;;;;5069910;28;19927;-75
2021/12/12 13:01:45;;;;;;;;;;;6.90;1.00;;;;;;5069776;28;20464;-75
2021/12/12 13:04:17;;;;;;;;;;;7.00;1.00;;;;;;5084810;28;20383;-76
2021/12/12 13:07:02;;;;;;;;;;;7.00;1.00;;;;;;5081131;28;19973;-76
2021/12/12 13:09:35;;;;;;;;;;;7.00;1.00;;;;;;5094949;27;20336;-75
2021/12/12 13:12:37;;;;;;;;;;;6.90;1.00;;;;;;5098512;28;19928;-74
2021/12/12 13:15:12;;;;;;;;;;;6.90;1.00;;;;;;5098150;28;19927;-75
2021/12/12 13:17:53;;;;;;;;;;;6.80;1.00;;;;;;5064631;28;19951;-74
2021/12/12 13:20:41;;;;;;;;;;;6.70;1.00;;;;;;5084192;28;19972;-75
2021/12/12 13:23:47;;;;;;;;;;;6.60;1.00;;;;;;5062259;28;19927;-75
2021/12/12 13:26:27;;;;;;;;;;;6.50;1.00;;;;;;5067163;28;19923;-77
2021/12/12 13:29:03;;;;;;;;;;;6.50;1.00;;;;;;5077154;28;19927;-75
2021/12/12 13:31:39;;;;;;;;;;;6.50;1.00;;;;;;5078288;28;19928;-75
2021/12/12 13:34:12;;;;;;;;;;;6.60;1.00;;;;;;5082150;28;19977;-76
2021/12/12 13:36:49;;;;;;;;;;;6.50;1.00;;;;;;5096980;27;19920;-74
2021/12/12 13:39:25;;;;;;;;;;;6.50;1.00;;;;;;5078211;28;19935;-74
2021/12/12 13:42:12;;;;;;;;;;;6.50;1.00;;;;;;5097788;28;20421;-75
2021/12/12 13:45:00;;;;;;;;;;;6.50;1.00;;;;;;5101203;28;19973;-74
2021/12/12 13:47:38;;;;;;;;;;;6.40;1.00;;;;;;5092351;28;19924;-74
2021/12/12 13:50:08;;;;;;;;;;;6.40;1.00;;;;;;5099104;28;19919;-74
2021/12/12 13:52:39;;;;;;;;;;;6.40;1.00;;;;;;5090667;28;19923;-74
2021/12/12 13:55:15;;;;;;;;;;;6.30;1.00;;;;;;5085647;28;19969;-74
2021/12/12 13:57:50;;;;;;;;;;;6.30;1.00;;;;;;5097978;27;19971;-74
2021/12/12 14:00:19;;;;;;;;;;;6.40;1.00;;;;;;5100709;28;19960;-74
2021/12/12 14:02:48;;;;;;;;;;;6.30;1.00;;;;;;5094642;28;19920;-74
2021/12/12 14:05:19;;;;;;;;;;;6.40;1.00;;;;;;5098269;28;20401;-73
2021/12/12 14:07:49;;;;;;;;;;;6.40;1.00;;;;;;5098393;28;19971;-74
2021/12/12 14:10:21;;;;;;;;;;;6.40;1.00;;;;;;5104505;28;19926;-73
2021/12/12 14:12:50;;;;;;;;;;;6.40;1.00;;;;;;5095065;28;19920;-73
2021/12/12 14:15:20;;;;;;;;;;;6.30;1.00;;;;;;5101928;28;19930;-74
2021/12/12 14:17:49;;;;;;;;;;;6.40;1.00;;;;;;5097452;28;20453;-76
2021/12/12 14:20:20;;;;;;;;;;;6.30;1.00;;;;;;5098826;27;19926;-75
2021/12/12 14:22:50;;;;;;;;;;;6.30;1.00;;;;;;5096930;28;19924;-73
2021/12/12 14:25:20;;;;;;;;;;;6.30;1.00;;;;;;5105810;27;20017;-74
2021/12/12 14:27:51;;;;;;;;;;;6.30;1.00;;;;;;5104973;27;19987;-75
2021/12/12 14:30:21;;;;;;;;;;;6.30;1.00;;;;;;5077848;28;19928;-74
2021/12/12 14:32:51;;;;;;;;;;;6.30;1.00;;;;;;5097276;27;20018;-75
2021/12/12 14:35:21;;;;;;;;;;;6.20;1.00;;;;;;5081190;28;19920;-74
2021/12/12 14:37:50;;;;;;;;;;;6.20;1.00;;;;;;5075950;28;19928;-74
2021/12/12 14:40:22;;;;;;;;;;;6.20;1.00;;;;;;5109166;27;20128;-74
2021/12/12 14:42:51;;;;;;;;;;;6.10;1.00;;;;;;5064210;28;20333;-73
2021/12/12 14:45:21;;;;;;;;;;;6.10;1.00;;;;;;5080074;28;19923;-74
2021/12/12 14:47:54;;;;;;;;;;;6.10;1.00;;;;;;5095265;28;20366;-74
2021/12/12 14:50:23;;;;;;;;;;;6.10;1.00;;;;;;5069809;28;19924;-74
2021/12/12 14:52:56;;;;;;;;;;;6.10;1.00;;;;;;5097126;28;19920;-73
2021/12/12 14:55:26;;;;;;;;;;;6.10;1.00;;;;;;5101866;28;20001;-72
2021/12/12 14:57:57;;;;;;;;;;;6.00;1.00;;;;;;5077761;28;20411;-73
2021/12/12 15:00:27;;;;;;;;;;;6.00;1.00;;;;;;5103681;28;20451;-74
2021/12/12 15:02:56;;;;;;;;;;;5.90;1.00;;;;;;5100451;28;19971;-73
2021/12/12 15:05:26;;;;;;;;;;;5.80;1.00;;;;;;5103433;27;19977;-74
2021/12/12 15:07:56;;;;;;;;;;;5.80;1.00;;;;;;5097556;27;19928;-74
2021/12/12 15:10:29;;;;;;;;;;;5.80;1.00;;;;;;5106609;28;19930;-74
2021/12/12 15:13:00;;;;;;;;;;;5.80;1.00;;;;;;5101944;28;19919;-73
2021/12/12 15:15:33;;;;;;;;;;;5.70;1.30;;;;;;5083705;28;19923;-73
2021/12/12 15:18:05;;;;;;;;;;;5.70;1.00;;;;;;5101368;28;19920;-73
2021/12/12 15:20:35;;;;;;;;;;;5.80;1.00;;;;;;5103055;28;19989;-73
2021/12/12 15:23:05;;;;;;;;;;;5.80;1.10;;;;;;5080464;28;20498;-74
2021/12/12 15:25:38;;;;;;;;;;;5.70;1.00;;;;;;5107286;28;19920;-73